AAL2031 KDFW-KORD
Flight info
| Callsign | AAL2031 |
|---|---|
| Flight time | 1h 56m |
| Altitude | 35000 |
| Route | AKUNA9 MLC SGF WELTS TRTLL6 |
| Aircraft | B738/M-SDE2E3FGHIRWXY/LB1 |
Departure
| Time | 2026-05-05 22:50 |
|---|---|
| Airport | Dallas Fort Worth International Airport (KDFW) |
Arrival
| Time | 2026-05-06 00:47 |
|---|---|
| Airport | Chicago O'Hare International Airport (KORD) |
| Time | Latitude | Longitude | Altitude | Speed | Heading |
|---|---|---|---|---|---|
| 2026-05-05 22:05 | 32.89677 | -97.03503 | 597 ft | 0 kts | 289° |
| 2026-05-05 22:37 | 32.89676 | -97.03501 | 597 ft | 2 kts | 289° |
| 2026-05-05 22:37 | 32.89670 | -97.03471 | 597 ft | 4 kts | 274° |
| 2026-05-05 22:37 | 32.89672 | -97.03440 | 597 ft | 4 kts | 249° |
| 2026-05-05 22:37 | 32.89685 | -97.03414 | 597 ft | 4 kts | 216° |
| 2026-05-05 22:38 | 32.89707 | -97.03403 | 597 ft | 2 kts | 180° |
| 2026-05-05 22:38 | 32.89708 | -97.03403 | 597 ft | 0 kts | 179° |
| 2026-05-05 22:41 | 32.89703 | -97.03403 | 597 ft | 3 kts | 180° |
| 2026-05-05 22:41 | 32.89667 | -97.03390 | 597 ft | 8 kts | 128° |
| 2026-05-05 22:41 | 32.89648 | -97.03323 | 597 ft | 8 kts | 151° |
| 2026-05-05 22:41 | 32.89573 | -97.03318 | 597 ft | 13 kts | 180° |
| 2026-05-05 22:42 | 32.89464 | -97.03319 | 597 ft | 17 kts | 180° |
| 2026-05-05 22:42 | 32.89338 | -97.03319 | 597 ft | 19 kts | 180° |
| 2026-05-05 22:42 | 32.89207 | -97.03320 | 597 ft | 19 kts | 180° |
| 2026-05-05 22:42 | 32.89075 | -97.03320 | 597 ft | 19 kts | 179° |
| 2026-05-05 22:43 | 32.88946 | -97.03321 | 597 ft | 18 kts | 180° |
| 2026-05-05 22:43 | 32.88820 | -97.03322 | 597 ft | 18 kts | 180° |
| 2026-05-05 22:43 | 32.88691 | -97.03323 | 597 ft | 19 kts | 180° |
| 2026-05-05 22:43 | 32.88569 | -97.03323 | 597 ft | 16 kts | 180° |
| 2026-05-05 22:44 | 32.88500 | -97.03394 | 597 ft | 16 kts | 270° |
| 2026-05-05 22:44 | 32.88501 | -97.03520 | 597 ft | 15 kts | 271° |
| 2026-05-05 22:44 | 32.88501 | -97.03648 | 597 ft | 15 kts | 270° |
| 2026-05-05 22:44 | 32.88502 | -97.03775 | 597 ft | 16 kts | 271° |
| 2026-05-05 22:45 | 32.88502 | -97.03916 | 597 ft | 18 kts | 269° |
| 2026-05-05 22:45 | 32.88503 | -97.04073 | 597 ft | 20 kts | 271° |
| 2026-05-05 22:45 | 32.88503 | -97.04245 | 597 ft | 21 kts | 269° |
| 2026-05-05 22:45 | 32.88504 | -97.04427 | 597 ft | 22 kts | 271° |
| 2026-05-05 22:46 | 32.88505 | -97.04606 | 597 ft | 20 kts | 270° |
| 2026-05-05 22:46 | 32.88455 | -97.04721 | 597 ft | 18 kts | 184° |
| 2026-05-05 22:46 | 32.88323 | -97.04722 | 597 ft | 21 kts | 180° |
| 2026-05-05 22:46 | 32.88171 | -97.04724 | 597 ft | 23 kts | 180° |
| 2026-05-05 22:47 | 32.88005 | -97.04724 | 597 ft | 19 kts | 180° |
| 2026-05-05 22:47 | 32.87915 | -97.04751 | 597 ft | 12 kts | 243° |
| 2026-05-05 22:47 | 32.87911 | -97.04855 | 597 ft | 13 kts | 270° |
| 2026-05-05 22:47 | 32.87912 | -97.04961 | 597 ft | 6 kts | 270° |
| 2026-05-05 22:48 | 32.87911 | -97.04975 | 597 ft | 0 kts | 270° |
| 2026-05-05 22:49 | 32.87911 | -97.05019 | 597 ft | 10 kts | 270° |
| 2026-05-05 22:49 | 32.87957 | -97.05091 | 597 ft | 14 kts | 349° |
| 2026-05-05 22:49 | 32.88113 | -97.05092 | 597 ft | 43 kts | 360° |
| 2026-05-05 22:50 | 32.88659 | -97.05090 | 597 ft | 111 kts | 0° |
| 2026-05-05 22:50 | 32.89616 | -97.05096 | 616 ft | 165 kts | 1° |
| 2026-05-05 22:50 | 32.90796 | -97.05083 | 1265 ft | 169 kts | 355° |
| 2026-05-05 22:50 | 32.92015 | -97.05097 | 1833 ft | 183 kts | 354° |
| 2026-05-05 22:51 | 32.93376 | -97.05163 | 2126 ft | 212 kts | 353° |
| 2026-05-05 22:51 | 32.94918 | -97.05232 | 2369 ft | 234 kts | 354° |
| 2026-05-05 22:51 | 32.96567 | -97.05279 | 2989 ft | 234 kts | 355° |
| 2026-05-05 22:51 | 32.98276 | -97.05286 | 3286 ft | 261 kts | 358° |
| 2026-05-05 22:52 | 33.00161 | -97.05289 | 3810 ft | 275 kts | 356° |
| 2026-05-05 22:52 | 33.02065 | -97.05307 | 4816 ft | 270 kts | 356° |
| 2026-05-05 22:52 | 33.03921 | -97.05313 | 5851 ft | 267 kts | 355° |
| 2026-05-05 22:52 | 33.05804 | -97.05322 | 6562 ft | 274 kts | 355° |
| 2026-05-05 22:53 | 33.07726 | -97.05368 | 7196 ft | 280 kts | 350° |
| 2026-05-05 22:53 | 33.09692 | -97.05638 | 7755 ft | 288 kts | 347° |
| 2026-05-05 22:53 | 33.11698 | -97.05966 | 8481 ft | 293 kts | 347° |
| 2026-05-05 22:53 | 33.13738 | -97.06288 | 9194 ft | 299 kts | 349° |
| 2026-05-05 22:54 | 33.15822 | -97.06057 | 9837 ft | 317 kts | 17° |
| 2026-05-05 22:54 | 33.17785 | -97.04754 | 10433 ft | 331 kts | 30° |
| 2026-05-05 22:54 | 33.19761 | -97.03158 | 10604 ft | 355 kts | 31° |
| 2026-05-05 22:54 | 33.21829 | -97.01431 | 10980 ft | 369 kts | 32° |
| 2026-05-05 22:55 | 33.23957 | -96.99647 | 11587 ft | 376 kts | 32° |
| 2026-05-05 22:55 | 33.26115 | -96.97851 | 12230 ft | 381 kts | 31° |
| 2026-05-05 22:55 | 33.28316 | -96.96034 | 12846 ft | 387 kts | 31° |
| 2026-05-05 22:55 | 33.30553 | -96.94198 | 13466 ft | 392 kts | 30° |
| 2026-05-05 22:56 | 33.32821 | -96.92343 | 14027 ft | 398 kts | 30° |
| 2026-05-05 22:56 | 33.35117 | -96.90465 | 14613 ft | 402 kts | 30° |
| 2026-05-05 22:56 | 33.37439 | -96.88566 | 15221 ft | 406 kts | 30° |
| 2026-05-05 22:56 | 33.39787 | -96.86645 | 15806 ft | 411 kts | 30° |
| 2026-05-05 22:57 | 33.42121 | -96.84734 | 16369 ft | 415 kts | 30° |
| 2026-05-05 22:57 | 33.44525 | -96.82767 | 16960 ft | 420 kts | 29° |
| 2026-05-05 22:57 | 33.46988 | -96.80886 | 17540 ft | 421 kts | 24° |
| 2026-05-05 22:57 | 33.49566 | -96.79190 | 18102 ft | 424 kts | 21° |
| 2026-05-05 22:58 | 33.52206 | -96.77556 | 18625 ft | 427 kts | 20° |
| 2026-05-05 22:58 | 33.54852 | -96.75936 | 19176 ft | 429 kts | 20° |
| 2026-05-05 22:58 | 33.57513 | -96.74290 | 19759 ft | 431 kts | 19° |
| 2026-05-05 22:58 | 33.60181 | -96.72617 | 20323 ft | 433 kts | 19° |
| 2026-05-05 22:59 | 33.62862 | -96.70916 | 20875 ft | 436 kts | 19° |
| 2026-05-05 22:59 | 33.65546 | -96.69199 | 21390 ft | 439 kts | 19° |
| 2026-05-05 22:59 | 33.68210 | -96.67488 | 21878 ft | 441 kts | 19° |
| 2026-05-05 22:59 | 33.70925 | -96.65740 | 22376 ft | 444 kts | 18° |
| 2026-05-05 23:00 | 33.76401 | -96.62207 | 23305 ft | 449 kts | 18° |
| 2026-05-05 23:00 | 33.79161 | -96.60426 | 23712 ft | 452 kts | 18° |
| 2026-05-05 23:00 | 33.81946 | -96.58628 | 24054 ft | 456 kts | 18° |
| 2026-05-05 23:01 | 33.84749 | -96.56817 | 24422 ft | 459 kts | 18° |
| 2026-05-05 23:01 | 33.87571 | -96.54992 | 24839 ft | 461 kts | 18° |
| 2026-05-05 23:01 | 33.90406 | -96.53156 | 25213 ft | 464 kts | 18° |
| 2026-05-05 23:01 | 33.93259 | -96.51307 | 25574 ft | 467 kts | 18° |
| 2026-05-05 23:02 | 33.96138 | -96.49441 | 25923 ft | 470 kts | 18° |
| 2026-05-05 23:02 | 33.98992 | -96.47589 | 26261 ft | 473 kts | 18° |
| 2026-05-05 23:02 | 34.01899 | -96.45701 | 26617 ft | 475 kts | 18° |
| 2026-05-05 23:02 | 34.04815 | -96.43805 | 27031 ft | 476 kts | 17° |
| 2026-05-05 23:03 | 34.07734 | -96.41873 | 27337 ft | 482 kts | 20° |
| 2026-05-05 23:03 | 34.10609 | -96.39705 | 27626 ft | 491 kts | 23° |
| 2026-05-05 23:03 | 34.13448 | -96.37376 | 27940 ft | 495 kts | 25° |
| 2026-05-05 23:03 | 34.16277 | -96.34981 | 28257 ft | 498 kts | 25° |
| 2026-05-05 23:04 | 34.19121 | -96.32567 | 28563 ft | 500 kts | 25° |
| 2026-05-05 23:04 | 34.21984 | -96.30160 | 28846 ft | 503 kts | 24° |
| 2026-05-05 23:04 | 34.24869 | -96.27762 | 29134 ft | 505 kts | 24° |
| 2026-05-05 23:04 | 34.27775 | -96.25368 | 29423 ft | 507 kts | 24° |
| 2026-05-05 23:05 | 34.30663 | -96.23000 | 29699 ft | 509 kts | 24° |
| 2026-05-05 23:05 | 34.33609 | -96.20589 | 29978 ft | 512 kts | 23° |
| 2026-05-05 23:05 | 34.36571 | -96.18165 | 30176 ft | 515 kts | 23° |
| 2026-05-05 23:05 | 34.39544 | -96.15729 | 30425 ft | 517 kts | 23° |
| 2026-05-05 23:06 | 34.42525 | -96.13279 | 30692 ft | 518 kts | 23° |
| 2026-05-05 23:06 | 34.45504 | -96.10826 | 31016 ft | 517 kts | 23° |
| 2026-05-05 23:06 | 34.48474 | -96.08377 | 31366 ft | 516 kts | 23° |
| 2026-05-05 23:06 | 34.51435 | -96.05931 | 31792 ft | 513 kts | 23° |
| 2026-05-05 23:07 | 34.54382 | -96.03496 | 32137 ft | 512 kts | 23° |
| 2026-05-05 23:07 | 34.57331 | -96.01063 | 32381 ft | 513 kts | 23° |
| 2026-05-05 23:07 | 34.60291 | -95.98621 | 32682 ft | 514 kts | 23° |
| 2026-05-05 23:07 | 34.63246 | -95.96179 | 33003 ft | 514 kts | 23° |
| 2026-05-05 23:08 | 34.66197 | -95.93735 | 33341 ft | 512 kts | 22° |
| 2026-05-05 23:08 | 34.69141 | -95.91294 | 33639 ft | 512 kts | 22° |
| 2026-05-05 23:08 | 34.72088 | -95.88852 | 33885 ft | 513 kts | 22° |
| 2026-05-05 23:08 | 34.75029 | -95.86411 | 34130 ft | 512 kts | 22° |
| 2026-05-05 23:09 | 34.76975 | -95.84794 | 34321 ft | 511 kts | 22° |
| 2026-05-05 23:09 | 34.79907 | -95.82356 | 34581 ft | 510 kts | 22° |
| 2026-05-05 23:09 | 34.82840 | -95.79917 | 34796 ft | 511 kts | 22° |
| 2026-05-05 23:09 | 34.86729 | -95.76628 | 34836 ft | 518 kts | 24° |
| 2026-05-05 23:10 | 34.91566 | -95.72164 | 34818 ft | 521 kts | 26° |
| 2026-05-05 23:10 | 34.97194 | -95.66748 | 34807 ft | 511 kts | 27° |
| 2026-05-05 23:11 | 35.02747 | -95.61437 | 34798 ft | 509 kts | 26° |
| 2026-05-05 23:11 | 35.08342 | -95.56145 | 34795 ft | 509 kts | 26° |
| 2026-05-05 23:12 | 35.13946 | -95.50861 | 34842 ft | 509 kts | 26° |
| 2026-05-05 23:12 | 35.19558 | -95.45559 | 34796 ft | 510 kts | 26° |
| 2026-05-05 23:13 | 35.25166 | -95.40243 | 34798 ft | 511 kts | 26° |
| 2026-05-05 23:13 | 35.30797 | -95.34895 | 34786 ft | 512 kts | 26° |
| 2026-05-05 23:14 | 35.36424 | -95.29539 | 34782 ft | 512 kts | 26° |
| 2026-05-05 23:14 | 35.42017 | -95.24207 | 34791 ft | 513 kts | 26° |
| 2026-05-05 23:15 | 35.47643 | -95.18833 | 34795 ft | 513 kts | 26° |
| 2026-05-05 23:15 | 35.53280 | -95.13440 | 34810 ft | 513 kts | 26° |
| 2026-05-05 23:16 | 35.58907 | -95.08045 | 34811 ft | 513 kts | 27° |
| 2026-05-05 23:16 | 35.64527 | -95.02648 | 34797 ft | 512 kts | 27° |
| 2026-05-05 23:17 | 35.70139 | -94.97250 | 34787 ft | 513 kts | 27° |
| 2026-05-05 23:17 | 35.75758 | -94.91834 | 34806 ft | 512 kts | 27° |
| 2026-05-05 23:18 | 35.81370 | -94.86414 | 34797 ft | 512 kts | 27° |
| 2026-05-05 23:18 | 35.86935 | -94.81030 | 34808 ft | 512 kts | 27° |
| 2026-05-05 23:19 | 35.92534 | -94.75605 | 34811 ft | 512 kts | 27° |
| 2026-05-05 23:19 | 35.98130 | -94.70171 | 34814 ft | 511 kts | 27° |
| 2026-05-05 23:20 | 36.03725 | -94.64728 | 34844 ft | 511 kts | 27° |
| 2026-05-05 23:20 | 36.09305 | -94.59290 | 34861 ft | 510 kts | 27° |
| 2026-05-05 23:21 | 36.14877 | -94.53849 | 34869 ft | 509 kts | 27° |
| 2026-05-05 23:21 | 36.20443 | -94.48405 | 34873 ft | 510 kts | 27° |
| 2026-05-05 23:22 | 36.26010 | -94.42951 | 34877 ft | 511 kts | 27° |
| 2026-05-05 23:22 | 36.31585 | -94.37478 | 34864 ft | 511 kts | 27° |
| 2026-05-05 23:23 | 36.37162 | -94.31991 | 34878 ft | 512 kts | 27° |
| 2026-05-05 23:23 | 36.42706 | -94.26528 | 34913 ft | 512 kts | 27° |
| 2026-05-05 23:24 | 36.48300 | -94.21005 | 34884 ft | 514 kts | 27° |
| 2026-05-05 23:24 | 36.53910 | -94.15454 | 34860 ft | 515 kts | 27° |
| 2026-05-05 23:25 | 36.59513 | -94.09899 | 34876 ft | 515 kts | 27° |
| 2026-05-05 23:25 | 36.65121 | -94.04332 | 34877 ft | 516 kts | 27° |
| 2026-05-05 23:26 | 36.70697 | -93.98783 | 34907 ft | 517 kts | 27° |
| 2026-05-05 23:26 | 36.76318 | -93.93179 | 34908 ft | 517 kts | 27° |
| 2026-05-05 23:27 | 36.81945 | -93.87558 | 34901 ft | 518 kts | 27° |
| 2026-05-05 23:27 | 36.87565 | -93.81932 | 34903 ft | 517 kts | 27° |
| 2026-05-05 23:28 | 36.93153 | -93.76327 | 34903 ft | 517 kts | 27° |
| 2026-05-05 23:28 | 36.98759 | -93.70696 | 34898 ft | 517 kts | 27° |
| 2026-05-05 23:29 | 37.04366 | -93.65050 | 34881 ft | 516 kts | 27° |
| 2026-05-05 23:29 | 37.09942 | -93.59424 | 34890 ft | 514 kts | 27° |
| 2026-05-05 23:30 | 37.15503 | -93.53804 | 34881 ft | 512 kts | 27° |
| 2026-05-05 23:30 | 37.21040 | -93.48198 | 34911 ft | 512 kts | 27° |
| 2026-05-05 23:31 | 37.26573 | -93.42585 | 34906 ft | 511 kts | 27° |
| 2026-05-05 23:31 | 37.32105 | -93.36961 | 34893 ft | 511 kts | 27° |
| 2026-05-05 23:32 | 37.37645 | -93.31369 | 34889 ft | 508 kts | 26° |
| 2026-05-05 23:32 | 37.43280 | -93.26150 | 34935 ft | 505 kts | 24° |
| 2026-05-05 23:33 | 37.49006 | -93.20992 | 34907 ft | 507 kts | 24° |
| 2026-05-05 23:33 | 37.54723 | -93.15775 | 34899 ft | 508 kts | 24° |
| 2026-05-05 23:34 | 37.60437 | -93.10494 | 34905 ft | 509 kts | 25° |
| 2026-05-05 23:34 | 37.66152 | -93.05183 | 34900 ft | 510 kts | 25° |
| 2026-05-05 23:35 | 37.71864 | -92.99866 | 34913 ft | 510 kts | 25° |
| 2026-05-05 23:35 | 37.77541 | -92.94575 | 34922 ft | 510 kts | 25° |
| 2026-05-05 23:36 | 37.83264 | -92.89234 | 34910 ft | 510 kts | 25° |
| 2026-05-05 23:36 | 37.88969 | -92.83897 | 34919 ft | 510 kts | 25° |
| 2026-05-05 23:37 | 37.94680 | -92.78545 | 34947 ft | 510 kts | 25° |
| 2026-05-05 23:37 | 38.00389 | -92.73186 | 34962 ft | 510 kts | 25° |
| 2026-05-05 23:38 | 38.06052 | -92.67857 | 34955 ft | 510 kts | 25° |
| 2026-05-05 23:38 | 38.11740 | -92.62492 | 34918 ft | 508 kts | 25° |
| 2026-05-05 23:39 | 38.17406 | -92.57139 | 34973 ft | 507 kts | 25° |
| 2026-05-05 23:39 | 38.23075 | -92.51775 | 34938 ft | 507 kts | 25° |
| 2026-05-05 23:40 | 38.28732 | -92.46410 | 34932 ft | 507 kts | 25° |
| 2026-05-05 23:40 | 38.34381 | -92.41042 | 34926 ft | 506 kts | 25° |
| 2026-05-05 23:41 | 38.39995 | -92.35697 | 34936 ft | 506 kts | 25° |
| 2026-05-05 23:41 | 38.45626 | -92.30325 | 34948 ft | 505 kts | 25° |
| 2026-05-05 23:42 | 38.51246 | -92.24953 | 34942 ft | 504 kts | 25° |
| 2026-05-05 23:42 | 38.56858 | -92.19577 | 34960 ft | 504 kts | 25° |
| 2026-05-05 23:43 | 38.62474 | -92.14188 | 34957 ft | 504 kts | 25° |
| 2026-05-05 23:43 | 38.68059 | -92.08818 | 34971 ft | 506 kts | 25° |
| 2026-05-05 23:44 | 38.73693 | -92.03389 | 34964 ft | 506 kts | 25° |
| 2026-05-05 23:44 | 38.79324 | -91.97950 | 34954 ft | 506 kts | 25° |
| 2026-05-05 23:45 | 38.84942 | -91.92512 | 34955 ft | 506 kts | 25° |
| 2026-05-05 23:45 | 38.90555 | -91.87070 | 34970 ft | 505 kts | 25° |
| 2026-05-05 23:46 | 38.96169 | -91.81616 | 34955 ft | 505 kts | 25° |
| 2026-05-05 23:46 | 39.01730 | -91.76061 | 34931 ft | 512 kts | 31° |
| 2026-05-05 23:47 | 39.06864 | -91.69699 | 34936 ft | 517 kts | 35° |
| 2026-05-05 23:47 | 39.11900 | -91.63078 | 34977 ft | 516 kts | 35° |
| 2026-05-05 23:48 | 39.16943 | -91.56507 | 34950 ft | 514 kts | 34° |
| 2026-05-05 23:48 | 39.21992 | -91.50019 | 34939 ft | 513 kts | 34° |
| 2026-05-05 23:49 | 39.27016 | -91.43589 | 34936 ft | 512 kts | 34° |
| 2026-05-05 23:49 | 39.32068 | -91.37111 | 34934 ft | 511 kts | 34° |
| 2026-05-05 23:50 | 39.37108 | -91.30629 | 34952 ft | 511 kts | 34° |
| 2026-05-05 23:50 | 39.42153 | -91.24123 | 34942 ft | 512 kts | 34° |
| 2026-05-05 23:51 | 39.47167 | -91.17641 | 34925 ft | 512 kts | 34° |
| 2026-05-05 23:51 | 39.52201 | -91.11117 | 34926 ft | 512 kts | 34° |
| 2026-05-05 23:52 | 39.57230 | -91.04587 | 34921 ft | 512 kts | 34° |
| 2026-05-05 23:52 | 39.62276 | -90.98024 | 34933 ft | 513 kts | 34° |
| 2026-05-05 23:53 | 39.67314 | -90.91453 | 34943 ft | 514 kts | 34° |
| 2026-05-05 23:53 | 39.72352 | -90.84868 | 34931 ft | 514 kts | 34° |
| 2026-05-05 23:54 | 39.77390 | -90.78268 | 34932 ft | 514 kts | 34° |
| 2026-05-05 23:54 | 39.82392 | -90.71702 | 34958 ft | 515 kts | 34° |
| 2026-05-05 23:55 | 39.87436 | -90.65068 | 34928 ft | 515 kts | 34° |
| 2026-05-05 23:55 | 39.92474 | -90.58424 | 34917 ft | 515 kts | 34° |
| 2026-05-05 23:56 | 39.97510 | -90.51767 | 34914 ft | 515 kts | 34° |
| 2026-05-05 23:56 | 40.02515 | -90.45132 | 34540 ft | 509 kts | 34° |
| 2026-05-05 23:57 | 40.04978 | -90.41855 | 34240 ft | 503 kts | 34° |
| 2026-05-05 23:57 | 40.07421 | -90.38606 | 33840 ft | 500 kts | 34° |
| 2026-05-05 23:57 | 40.09851 | -90.35374 | 33426 ft | 497 kts | 34° |
| 2026-05-05 23:57 | 40.12237 | -90.32201 | 33012 ft | 494 kts | 35° |
| 2026-05-05 23:58 | 40.14634 | -90.29008 | 32623 ft | 490 kts | 36° |
| 2026-05-05 23:58 | 40.17012 | -90.25838 | 32249 ft | 486 kts | 36° |
| 2026-05-05 23:58 | 40.19371 | -90.22689 | 31867 ft | 483 kts | 36° |
| 2026-05-05 23:58 | 40.21713 | -90.19559 | 31507 ft | 479 kts | 37° |
| 2026-05-05 23:59 | 40.24032 | -90.16456 | 31195 ft | 475 kts | 37° |
| 2026-05-05 23:59 | 40.26337 | -90.13372 | 30798 ft | 473 kts | 38° |
| 2026-05-05 23:59 | 40.28632 | -90.10298 | 30379 ft | 471 kts | 39° |
| 2026-05-05 23:59 | 40.30150 | -90.08264 | 30112 ft | 470 kts | 40° |
| 2026-05-06 00:00 | 40.32430 | -90.05204 | 29718 ft | 467 kts | 40° |
| 2026-05-06 00:00 | 40.34692 | -90.02164 | 29304 ft | 464 kts | 40° |
| 2026-05-06 00:00 | 40.36932 | -89.99147 | 28941 ft | 459 kts | 40° |
| 2026-05-06 00:00 | 40.39150 | -89.96157 | 28547 ft | 456 kts | 40° |
| 2026-05-06 00:01 | 40.41349 | -89.93191 | 28197 ft | 451 kts | 40° |
| 2026-05-06 00:01 | 40.43531 | -89.90245 | 27816 ft | 448 kts | 40° |
| 2026-05-06 00:01 | 40.45694 | -89.87323 | 27449 ft | 445 kts | 41° |
| 2026-05-06 00:01 | 40.47845 | -89.84414 | 27113 ft | 442 kts | 41° |
| 2026-05-06 00:02 | 40.49979 | -89.81525 | 26743 ft | 440 kts | 41° |
| 2026-05-06 00:02 | 40.52101 | -89.78650 | 26377 ft | 437 kts | 41° |
| 2026-05-06 00:02 | 40.54213 | -89.75786 | 26024 ft | 435 kts | 41° |
| 2026-05-06 00:02 | 40.56308 | -89.72942 | 25665 ft | 432 kts | 42° |
| 2026-05-06 00:03 | 40.58395 | -89.70107 | 25321 ft | 430 kts | 42° |
| 2026-05-06 00:03 | 40.60467 | -89.67289 | 24980 ft | 428 kts | 42° |
| 2026-05-06 00:03 | 40.62532 | -89.64477 | 24632 ft | 426 kts | 42° |
| 2026-05-06 00:03 | 40.64585 | -89.61680 | 24287 ft | 424 kts | 43° |
| 2026-05-06 00:04 | 40.66631 | -89.58888 | 23938 ft | 422 kts | 43° |
| 2026-05-06 00:04 | 40.68671 | -89.56104 | 23580 ft | 421 kts | 43° |
| 2026-05-06 00:04 | 40.70700 | -89.53330 | 23193 ft | 420 kts | 43° |
| 2026-05-06 00:04 | 40.72725 | -89.50559 | 22807 ft | 418 kts | 43° |
| 2026-05-06 00:05 | 40.76730 | -89.45070 | 22084 ft | 412 kts | 43° |
| 2026-05-06 00:05 | 40.78713 | -89.42349 | 21745 ft | 410 kts | 42° |
| 2026-05-06 00:05 | 40.80652 | -89.39685 | 21402 ft | 407 kts | 42° |
| 2026-05-06 00:06 | 40.82608 | -89.36996 | 21063 ft | 404 kts | 42° |
| 2026-05-06 00:06 | 40.84548 | -89.34327 | 20725 ft | 401 kts | 42° |
| 2026-05-06 00:06 | 40.86484 | -89.31662 | 20398 ft | 399 kts | 42° |
| 2026-05-06 00:06 | 40.88401 | -89.29021 | 20057 ft | 397 kts | 41° |
| 2026-05-06 00:07 | 40.90304 | -89.26396 | 19732 ft | 395 kts | 41° |
| 2026-05-06 00:07 | 40.92201 | -89.23777 | 19414 ft | 393 kts | 42° |
| 2026-05-06 00:07 | 40.94090 | -89.21167 | 19065 ft | 391 kts | 42° |
| 2026-05-06 00:07 | 40.95971 | -89.18567 | 18732 ft | 389 kts | 42° |
| 2026-05-06 00:08 | 40.97837 | -89.15984 | 18408 ft | 387 kts | 42° |
| 2026-05-06 00:08 | 40.99676 | -89.13436 | 18045 ft | 386 kts | 42° |
| 2026-05-06 00:08 | 41.01524 | -89.10874 | 17675 ft | 384 kts | 42° |
| 2026-05-06 00:08 | 41.03361 | -89.08324 | 17324 ft | 381 kts | 42° |
| 2026-05-06 00:09 | 41.05204 | -89.05763 | 16979 ft | 378 kts | 42° |
| 2026-05-06 00:09 | 41.07010 | -89.03252 | 16650 ft | 375 kts | 42° |
| 2026-05-06 00:09 | 41.08775 | -89.00796 | 16327 ft | 372 kts | 42° |
| 2026-05-06 00:09 | 41.10552 | -88.98320 | 16019 ft | 368 kts | 42° |
| 2026-05-06 00:10 | 41.12300 | -88.95884 | 15814 ft | 362 kts | 42° |
| 2026-05-06 00:10 | 41.14028 | -88.93472 | 15516 ft | 359 kts | 42° |
| 2026-05-06 00:10 | 41.15745 | -88.91076 | 15201 ft | 356 kts | 42° |
| 2026-05-06 00:10 | 41.17449 | -88.88695 | 14883 ft | 354 kts | 42° |
| 2026-05-06 00:11 | 41.19140 | -88.86332 | 14563 ft | 352 kts | 42° |
| 2026-05-06 00:11 | 41.20823 | -88.83977 | 14252 ft | 350 kts | 42° |
| 2026-05-06 00:11 | 41.22489 | -88.81645 | 13936 ft | 348 kts | 42° |
| 2026-05-06 00:11 | 41.24152 | -88.79314 | 13613 ft | 346 kts | 42° |
| 2026-05-06 00:12 | 41.25779 | -88.77031 | 13255 ft | 344 kts | 42° |
| 2026-05-06 00:12 | 41.27423 | -88.74723 | 12919 ft | 341 kts | 42° |
| 2026-05-06 00:12 | 41.29049 | -88.72439 | 12587 ft | 339 kts | 43° |
| 2026-05-06 00:12 | 41.30664 | -88.70167 | 12269 ft | 337 kts | 43° |
| 2026-05-06 00:13 | 41.32272 | -88.67905 | 11944 ft | 334 kts | 43° |
| 2026-05-06 00:13 | 41.33865 | -88.65663 | 11632 ft | 332 kts | 43° |
| 2026-05-06 00:13 | 41.35444 | -88.63438 | 11331 ft | 330 kts | 43° |
| 2026-05-06 00:13 | 41.36994 | -88.61257 | 11038 ft | 327 kts | 43° |
| 2026-05-06 00:14 | 41.38600 | -88.59198 | 11002 ft | 314 kts | 38° |
| 2026-05-06 00:14 | 41.40216 | -88.57286 | 10951 ft | 307 kts | 37° |
| 2026-05-06 00:14 | 41.41820 | -88.55421 | 10926 ft | 308 kts | 37° |
| 2026-05-06 00:14 | 41.43450 | -88.53525 | 10912 ft | 314 kts | 37° |
| 2026-05-06 00:15 | 41.45102 | -88.51589 | 10871 ft | 315 kts | 37° |
| 2026-05-06 00:15 | 41.46694 | -88.49706 | 10836 ft | 298 kts | 38° |
| 2026-05-06 00:15 | 41.48191 | -88.47923 | 10694 ft | 279 kts | 37° |
| 2026-05-06 00:15 | 41.49594 | -88.46251 | 10551 ft | 263 kts | 37° |
| 2026-05-06 00:16 | 41.50917 | -88.44675 | 10469 ft | 245 kts | 37° |
| 2026-05-06 00:16 | 41.52157 | -88.43197 | 10457 ft | 237 kts | 37° |
| 2026-05-06 00:16 | 41.53417 | -88.41704 | 10483 ft | 247 kts | 37° |
| 2026-05-06 00:16 | 41.54718 | -88.40158 | 10507 ft | 254 kts | 37° |
| 2026-05-06 00:17 | 41.56032 | -88.38591 | 10450 ft | 252 kts | 37° |
| 2026-05-06 00:17 | 41.57330 | -88.37039 | 10389 ft | 249 kts | 37° |
| 2026-05-06 00:17 | 41.58602 | -88.35518 | 10417 ft | 250 kts | 37° |
| 2026-05-06 00:17 | 41.59906 | -88.33960 | 10420 ft | 254 kts | 37° |
| 2026-05-06 00:18 | 41.61229 | -88.32378 | 10425 ft | 255 kts | 37° |
| 2026-05-06 00:18 | 41.62547 | -88.30804 | 10418 ft | 254 kts | 37° |
| 2026-05-06 00:18 | 41.63869 | -88.29233 | 10413 ft | 252 kts | 37° |
| 2026-05-06 00:18 | 41.65169 | -88.27686 | 10435 ft | 247 kts | 37° |
| 2026-05-06 00:19 | 41.66454 | -88.26158 | 10412 ft | 246 kts | 37° |
| 2026-05-06 00:19 | 41.67733 | -88.24637 | 10389 ft | 246 kts | 37° |
| 2026-05-06 00:19 | 41.69012 | -88.23114 | 10370 ft | 247 kts | 37° |
| 2026-05-06 00:19 | 41.70296 | -88.21585 | 10342 ft | 247 kts | 37° |
| 2026-05-06 00:20 | 41.71581 | -88.20053 | 10313 ft | 248 kts | 37° |
| 2026-05-06 00:20 | 41.72856 | -88.18530 | 10268 ft | 243 kts | 37° |
| 2026-05-06 00:20 | 41.74106 | -88.17037 | 10187 ft | 239 kts | 37° |
| 2026-05-06 00:20 | 41.75349 | -88.15554 | 10222 ft | 243 kts | 37° |
| 2026-05-06 00:21 | 41.76624 | -88.14033 | 10237 ft | 247 kts | 37° |
| 2026-05-06 00:21 | 41.77917 | -88.12487 | 10212 ft | 250 kts | 37° |
| 2026-05-06 00:21 | 41.79192 | -88.10960 | 10170 ft | 247 kts | 37° |
| 2026-05-06 00:21 | 41.80474 | -88.09424 | 10144 ft | 246 kts | 37° |
| 2026-05-06 00:22 | 41.81709 | -88.07844 | 10109 ft | 245 kts | 40° |
| 2026-05-06 00:22 | 41.82916 | -88.06228 | 10089 ft | 245 kts | 40° |
| 2026-05-06 00:22 | 41.84108 | -88.04635 | 10068 ft | 244 kts | 40° |
| 2026-05-06 00:22 | 41.85329 | -88.03008 | 10055 ft | 245 kts | 40° |
| 2026-05-06 00:23 | 41.86529 | -88.01412 | 10033 ft | 247 kts | 40° |
| 2026-05-06 00:23 | 41.87742 | -87.99771 | 9996 ft | 249 kts | 46° |
| 2026-05-06 00:23 | 41.88461 | -87.97633 | 9934 ft | 252 kts | 88° |
| 2026-05-06 00:23 | 41.88473 | -87.95338 | 9966 ft | 249 kts | 93° |
| 2026-05-06 00:24 | 41.88462 | -87.93002 | 9924 ft | 252 kts | 93° |
| 2026-05-06 00:24 | 41.88452 | -87.90646 | 9896 ft | 253 kts | 93° |
| 2026-05-06 00:24 | 41.88447 | -87.88280 | 9868 ft | 254 kts | 93° |
| 2026-05-06 00:24 | 41.88442 | -87.85905 | 9839 ft | 255 kts | 93° |
| 2026-05-06 00:25 | 41.88438 | -87.83526 | 9812 ft | 255 kts | 93° |
| 2026-05-06 00:25 | 41.88435 | -87.81149 | 9783 ft | 254 kts | 93° |
| 2026-05-06 00:25 | 41.88432 | -87.78785 | 9750 ft | 253 kts | 93° |
| 2026-05-06 00:25 | 41.88429 | -87.76420 | 9722 ft | 252 kts | 93° |
| 2026-05-06 00:26 | 41.88427 | -87.74102 | 9693 ft | 251 kts | 93° |
| 2026-05-06 00:26 | 41.88424 | -87.71766 | 9669 ft | 249 kts | 93° |
| 2026-05-06 00:26 | 41.88421 | -87.69487 | 9632 ft | 239 kts | 93° |
| 2026-05-06 00:26 | 41.88419 | -87.67310 | 9594 ft | 232 kts | 93° |
| 2026-05-06 00:27 | 41.88414 | -87.65155 | 9586 ft | 231 kts | 93° |
| 2026-05-06 00:27 | 41.88409 | -87.62991 | 9583 ft | 232 kts | 93° |
| 2026-05-06 00:27 | 41.88404 | -87.60817 | 9566 ft | 234 kts | 93° |
| 2026-05-06 00:27 | 41.88399 | -87.58631 | 9544 ft | 235 kts | 93° |
| 2026-05-06 00:28 | 41.88393 | -87.56438 | 9521 ft | 235 kts | 93° |
| 2026-05-06 00:28 | 41.88387 | -87.54240 | 9490 ft | 235 kts | 93° |
| 2026-05-06 00:28 | 41.88381 | -87.52093 | 9468 ft | 235 kts | 93° |
| 2026-05-06 00:28 | 41.88374 | -87.49907 | 9457 ft | 233 kts | 93° |
| 2026-05-06 00:29 | 41.88427 | -87.47752 | 9447 ft | 231 kts | 85° |
| 2026-05-06 00:29 | 41.88649 | -87.45625 | 9439 ft | 229 kts | 82° |
| 2026-05-06 00:29 | 41.88898 | -87.43522 | 9437 ft | 227 kts | 82° |
| 2026-05-06 00:29 | 41.89144 | -87.41438 | 9436 ft | 227 kts | 83° |
| 2026-05-06 00:30 | 41.89382 | -87.39370 | 9443 ft | 227 kts | 83° |
| 2026-05-06 00:30 | 41.89620 | -87.37267 | 9447 ft | 228 kts | 83° |
| 2026-05-06 00:30 | 41.89856 | -87.35150 | 9445 ft | 230 kts | 83° |
| 2026-05-06 00:30 | 41.90092 | -87.33015 | 9429 ft | 232 kts | 83° |
| 2026-05-06 00:31 | 41.90329 | -87.30856 | 9401 ft | 234 kts | 83° |
| 2026-05-06 00:31 | 41.90567 | -87.28683 | 9379 ft | 235 kts | 83° |
| 2026-05-06 00:31 | 41.90804 | -87.26506 | 9351 ft | 236 kts | 83° |
| 2026-05-06 00:31 | 41.91040 | -87.24326 | 9324 ft | 235 kts | 83° |
| 2026-05-06 00:32 | 41.91275 | -87.22152 | 9302 ft | 235 kts | 83° |
| 2026-05-06 00:32 | 41.91508 | -87.19992 | 9278 ft | 233 kts | 83° |
| 2026-05-06 00:32 | 41.91739 | -87.17847 | 9259 ft | 231 kts | 83° |
| 2026-05-06 00:32 | 41.92296 | -87.15852 | 9201 ft | 228 kts | 47° |
| 2026-05-06 00:33 | 41.93518 | -87.14674 | 9207 ft | 211 kts | 9° |
| 2026-05-06 00:33 | 41.94917 | -87.14539 | 9220 ft | 199 kts | 340° |
| 2026-05-06 00:33 | 41.96138 | -87.15250 | 9231 ft | 186 kts | 312° |
| 2026-05-06 00:33 | 41.96960 | -87.16504 | 9193 ft | 175 kts | 292° |
| 2026-05-06 00:34 | 41.97359 | -87.17975 | 9166 ft | 167 kts | 276° |
| 2026-05-06 00:34 | 41.97543 | -87.19509 | 9151 ft | 166 kts | 274° |
| 2026-05-06 00:34 | 41.97707 | -87.21044 | 9125 ft | 166 kts | 274° |
| 2026-05-06 00:34 | 41.97871 | -87.22583 | 9114 ft | 166 kts | 274° |
| 2026-05-06 00:35 | 41.98034 | -87.24120 | 9100 ft | 166 kts | 274° |
| 2026-05-06 00:35 | 41.98198 | -87.25653 | 9066 ft | 166 kts | 274° |
| 2026-05-06 00:35 | 41.98363 | -87.27196 | 9067 ft | 167 kts | 274° |
| 2026-05-06 00:35 | 41.98529 | -87.28746 | 9044 ft | 168 kts | 274° |
| 2026-05-06 00:36 | 41.98686 | -87.30313 | 8917 ft | 174 kts | 271° |
| 2026-05-06 00:36 | 41.98715 | -87.31926 | 8738 ft | 170 kts | 268° |
| 2026-05-06 00:36 | 41.98716 | -87.33494 | 8509 ft | 169 kts | 269° |
| 2026-05-06 00:36 | 41.98718 | -87.35072 | 8290 ft | 169 kts | 269° |
| 2026-05-06 00:37 | 41.98722 | -87.36654 | 8076 ft | 170 kts | 269° |
| 2026-05-06 00:37 | 41.98725 | -87.38256 | 7848 ft | 172 kts | 270° |
| 2026-05-06 00:37 | 41.98729 | -87.39873 | 7624 ft | 174 kts | 270° |
| 2026-05-06 00:37 | 41.98734 | -87.41504 | 7392 ft | 175 kts | 271° |
| 2026-05-06 00:38 | 41.98740 | -87.43095 | 7150 ft | 166 kts | 271° |
| 2026-05-06 00:38 | 41.98745 | -87.44619 | 6923 ft | 161 kts | 272° |
| 2026-05-06 00:38 | 41.98774 | -87.46126 | 6842 ft | 159 kts | 275° |
| 2026-05-06 00:38 | 41.98842 | -87.47641 | 6697 ft | 167 kts | 274° |
| 2026-05-06 00:39 | 41.98881 | -87.49203 | 6505 ft | 168 kts | 273° |
| 2026-05-06 00:39 | 41.98898 | -87.50760 | 6303 ft | 166 kts | 273° |
| 2026-05-06 00:39 | 41.98904 | -87.52308 | 6079 ft | 165 kts | 273° |
| 2026-05-06 00:39 | 41.98903 | -87.53851 | 5849 ft | 165 kts | 272° |
| 2026-05-06 00:40 | 41.98900 | -87.55394 | 5619 ft | 165 kts | 272° |
| 2026-05-06 00:40 | 41.98896 | -87.56931 | 5388 ft | 164 kts | 272° |
| 2026-05-06 00:40 | 41.98891 | -87.58454 | 5196 ft | 162 kts | 272° |
| 2026-05-06 00:40 | 41.98885 | -87.59949 | 4951 ft | 154 kts | 272° |
| 2026-05-06 00:41 | 41.98880 | -87.61358 | 4731 ft | 147 kts | 272° |
| 2026-05-06 00:41 | 41.98876 | -87.62703 | 4532 ft | 143 kts | 272° |
| 2026-05-06 00:41 | 41.98873 | -87.64021 | 4345 ft | 145 kts | 272° |
| 2026-05-06 00:41 | 41.98869 | -87.65397 | 4140 ft | 145 kts | 272° |
| 2026-05-06 00:42 | 41.98866 | -87.66730 | 3938 ft | 144 kts | 272° |
| 2026-05-06 00:42 | 41.98862 | -87.68074 | 3741 ft | 143 kts | 272° |
| 2026-05-06 00:42 | 41.98859 | -87.69418 | 3542 ft | 144 kts | 272° |
| 2026-05-06 00:42 | 41.98856 | -87.70763 | 3348 ft | 144 kts | 272° |
| 2026-05-06 00:43 | 41.98835 | -87.72105 | 3138 ft | 143 kts | 271° |
| 2026-05-06 00:43 | 41.98798 | -87.73450 | 2881 ft | 144 kts | 271° |
| 2026-05-06 00:43 | 41.98770 | -87.74786 | 2675 ft | 141 kts | 273° |
| 2026-05-06 00:43 | 41.98780 | -87.76107 | 2439 ft | 141 kts | 272° |
| 2026-05-06 00:44 | 41.98788 | -87.77406 | 2220 ft | 142 kts | 274° |
| 2026-05-06 00:44 | 41.98816 | -87.78721 | 2048 ft | 139 kts | 274° |
| 2026-05-06 00:44 | 41.98832 | -87.80021 | 1850 ft | 138 kts | 274° |
| 2026-05-06 00:44 | 41.98833 | -87.81306 | 1753 ft | 138 kts | 271° |
| 2026-05-06 00:45 | 41.98830 | -87.82603 | 1584 ft | 141 kts | 272° |
| 2026-05-06 00:45 | 41.98804 | -87.83939 | 1369 ft | 144 kts | 274° |
| 2026-05-06 00:45 | 41.98814 | -87.85269 | 1205 ft | 140 kts | 272° |
| 2026-05-06 00:45 | 41.98811 | -87.86581 | 980 ft | 141 kts | 274° |
| 2026-05-06 00:46 | 41.98827 | -87.87887 | 826 ft | 137 kts | 272° |
| 2026-05-06 00:46 | 41.98830 | -87.89167 | 691 ft | 136 kts | 274° |
| 2026-05-06 00:46 | 41.98844 | -87.90316 | 668 ft | 99 kts | 268° |
| 2026-05-06 00:46 | 41.98831 | -87.90803 | 668 ft | 58 kts | 269° |
| 2026-05-06 00:47 | 41.98831 | -87.91300 | 666 ft | 35 kts | 270° |
| 2026-05-06 00:47 | 41.98766 | -87.91534 | 666 ft | 10 kts | 236° |
| 2026-05-06 00:47 | 41.98756 | -87.91555 | 666 ft | 0 kts | 235° |
| 2026-05-06 00:48 | 41.98751 | -87.91562 | 667 ft | 5 kts | 225° |
| 2026-05-06 00:48 | 41.98686 | -87.91550 | 669 ft | 17 kts | 120° |
| 2026-05-06 00:48 | 41.98680 | -87.91364 | 669 ft | 21 kts | 90° |
| 2026-05-06 00:49 | 41.98679 | -87.91169 | 669 ft | 21 kts | 90° |
| 2026-05-06 00:49 | 41.98680 | -87.90977 | 668 ft | 20 kts | 89° |
| 2026-05-06 00:49 | 41.98680 | -87.90790 | 668 ft | 20 kts | 90° |
| 2026-05-06 00:49 | 41.98681 | -87.90610 | 669 ft | 19 kts | 89° |
| 2026-05-06 00:50 | 41.98682 | -87.90436 | 669 ft | 18 kts | 90° |
| 2026-05-06 00:50 | 41.98683 | -87.90268 | 669 ft | 18 kts | 91° |
| 2026-05-06 00:50 | 41.98681 | -87.90103 | 669 ft | 17 kts | 90° |
| 2026-05-06 00:50 | 41.98682 | -87.89943 | 669 ft | 17 kts | 89° |
| 2026-05-06 00:51 | 41.98682 | -87.89783 | 669 ft | 18 kts | 90° |
| 2026-05-06 00:51 | 41.98682 | -87.89606 | 669 ft | 18 kts | 90° |
| 2026-05-06 00:51 | 41.98653 | -87.89504 | 669 ft | 10 kts | 157° |
| 2026-05-06 00:51 | 41.98573 | -87.89494 | 669 ft | 13 kts | 181° |
| 2026-05-06 00:52 | 41.98471 | -87.89495 | 668 ft | 16 kts | 180° |
| 2026-05-06 00:52 | 41.98370 | -87.89435 | 667 ft | 19 kts | 124° |
| 2026-05-06 00:52 | 41.98314 | -87.89363 | 667 ft | 0 kts | 146° |
| 2026-05-06 00:52 | 41.98308 | -87.89357 | 668 ft | 4 kts | 146° |
| 2026-05-06 00:53 | 41.98262 | -87.89312 | 669 ft | 13 kts | 143° |
| 2026-05-06 00:53 | 41.98172 | -87.89222 | 668 ft | 12 kts | 154° |
| 2026-05-06 00:53 | 41.98119 | -87.89242 | 667 ft | 11 kts | 218° |
| 2026-05-06 00:53 | 41.98050 | -87.89354 | 669 ft | 20 kts | 229° |
| 2026-05-06 00:54 | 41.97954 | -87.89498 | 669 ft | 18 kts | 220° |
| 2026-05-06 00:54 | 41.97826 | -87.89523 | 670 ft | 14 kts | 181° |
| 2026-05-06 00:54 | 41.97788 | -87.89572 | 670 ft | 10 kts | 264° |
| 2026-05-06 00:54 | 41.97788 | -87.89665 | 670 ft | 7 kts | 270° |
| 2026-05-06 00:55 | 41.97771 | -87.89706 | 669 ft | 5 kts | 198° |
| 2026-05-06 00:55 | 41.97741 | -87.89709 | 670 ft | 2 kts | 180° |
| 2026-05-06 00:55 | 41.97738 | -87.89709 | 670 ft | 0 kts | 180° |